Airport View

Enter AWOS ICAO identifier for current METAR.

ex. KFNL

KOKV 201210Z AUTO 30013KT 10SM BKN032 OVC060 06/01 A3000 RMK AO2

20 Nov 2019 12:14

Frequency: 124.85

Phone: 540-662-6970

Other Area AWOS: KFRR - KMRB - KJYO - KLUA

TAF KMRB 201141Z 2012/2112 30009KT P6SM OVC050 FM201500 32010G17KT P6SM BKN045 FM202100 31011KT P6SM SCT050 FM210600 30005KT P6SM SKC